South Rome, Illinois
Current Conditions -  °F | °C
As of 12:35 PM on Monday 26 Jan 2015 (Local Time) from KC75 Reporting Station
Light Snow Light Snow  
Wind Chill: 19°   Ceiling: 3600
Heat Index: 25°   Visibility: 5mi
Dew Point: 21°   Wind: 5mph
Humidity: 86%   Direction: 190°S
Pressure: 29.89"   Gusts: NA
Location:  40.915°N, 89.5303°W
Report Text: KC75 261835Z AUTO 19004KT 5SM -SN SCT006 BKN036 OVC080 M04/M06 A2989 RMK AO2 T10401060
Loading
Personal Weather Stations






























Interactive Weather Map New forecast layout! Learn more

10-Day Weather Forecast

Advertisements
Track Severe Weather on mobile